<?xml version="1.0" encoding="UTF-8" standalone="no" ?>
<gpx xmlns="http://www.topografix.com/GPX/1/1" xmlns:xsi="http://www.w3.org/2001/XMLSchema-instance" xsi:schemaLocation="http://www.topografix.com/GPX/1/1 http://www.topografix.com/GPX/1/1/gpx.xsd" version="1.1" creator="VisuGPX - https://www.visugpx.com">
  <metadata>
    <name>BEAUVILLE 2</name>
    <desc><![CDATA[boucle de 19km entre Beauville et Blaymont]]></desc>
  </metadata>
  <trk>
    <name><![CDATA[14136345-BEAUVILLE 2]]></name>
    <extensions>
      <line xmlns="http://www.topografix.com/GPX/gpx_style/0/2">
        <color>0000FF</color>
        <width>4</width>
      </line>
    </extensions>
    <trkseg>
      <trkpt lat="44.27514" lon="0.88445">
        <ele>213</ele>
        <time>2022-05-08T19:25:47Z</time>
      </trkpt>
      <trkpt lat="44.27538" lon="0.88468">
        <ele>211</ele>
        <time>2022-05-08T19:26:26Z</time>
      </trkpt>
      <trkpt lat="44.2759" lon="0.88515">
        <ele>203</ele>
        <time>2022-05-08T19:27:48Z</time>
      </trkpt>
      <trkpt lat="44.27565" lon="0.88543">
        <ele>200</ele>
        <time>2022-05-08T19:28:31Z</time>
      </trkpt>
      <trkpt lat="44.27522" lon="0.88588">
        <ele>200</ele>
        <time>2022-05-08T19:29:43Z</time>
      </trkpt>
      <trkpt lat="44.2748" lon="0.88636">
        <ele>199</ele>
        <time>2022-05-08T19:30:55Z</time>
      </trkpt>
      <trkpt lat="44.27452" lon="0.88671">
        <ele>198</ele>
        <time>2022-05-08T19:31:46Z</time>
      </trkpt>
      <trkpt lat="44.27432" lon="0.88744">
        <ele>198</ele>
        <time>2022-05-08T19:33:00Z</time>
      </trkpt>
      <trkpt lat="44.27437" lon="0.88778">
        <ele>198</ele>
        <time>2022-05-08T19:33:33Z</time>
      </trkpt>
      <trkpt lat="44.27413" lon="0.88798">
        <ele>202</ele>
        <time>2022-05-08T19:34:11Z</time>
      </trkpt>
      <trkpt lat="44.27441" lon="0.88894">
        <ele>202</ele>
        <time>2022-05-08T19:35:50Z</time>
      </trkpt>
      <trkpt lat="44.27474" lon="0.88896">
        <ele>202</ele>
        <time>2022-05-08T19:36:34Z</time>
      </trkpt>
      <trkpt lat="44.27524" lon="0.88972">
        <ele>206</ele>
        <time>2022-05-08T19:38:12Z</time>
      </trkpt>
      <trkpt lat="44.27564" lon="0.89035">
        <ele>211</ele>
        <time>2022-05-08T19:39:33Z</time>
      </trkpt>
      <trkpt lat="44.27588" lon="0.89132">
        <ele>216</ele>
        <time>2022-05-08T19:41:11Z</time>
      </trkpt>
      <trkpt lat="44.27612" lon="0.89257">
        <ele>214</ele>
        <time>2022-05-08T19:43:15Z</time>
      </trkpt>
      <trkpt lat="44.2764" lon="0.8933">
        <ele>211</ele>
        <time>2022-05-08T19:44:34Z</time>
      </trkpt>
      <trkpt lat="44.27651" lon="0.89364">
        <ele>209</ele>
        <time>2022-05-08T19:45:09Z</time>
      </trkpt>
      <trkpt lat="44.27664" lon="0.89417">
        <ele>205</ele>
        <time>2022-05-08T19:46:03Z</time>
      </trkpt>
      <trkpt lat="44.27679" lon="0.89404">
        <ele>205</ele>
        <time>2022-05-08T19:46:26Z</time>
      </trkpt>
      <trkpt lat="44.27709" lon="0.89444">
        <ele>198</ele>
        <time>2022-05-08T19:47:22Z</time>
      </trkpt>
      <trkpt lat="44.27754" lon="0.89459">
        <ele>193</ele>
        <time>2022-05-08T19:48:24Z</time>
      </trkpt>
      <trkpt lat="44.27788" lon="0.89458">
        <ele>190</ele>
        <time>2022-05-08T19:49:09Z</time>
      </trkpt>
      <trkpt lat="44.27827" lon="0.89457">
        <ele>187</ele>
        <time>2022-05-08T19:50:01Z</time>
      </trkpt>
      <trkpt lat="44.27813" lon="0.89485">
        <ele>183</ele>
        <time>2022-05-08T19:50:34Z</time>
      </trkpt>
      <trkpt lat="44.27788" lon="0.89511">
        <ele>179</ele>
        <time>2022-05-08T19:51:15Z</time>
      </trkpt>
      <trkpt lat="44.27817" lon="0.89535">
        <ele>172</ele>
        <time>2022-05-08T19:52:00Z</time>
      </trkpt>
      <trkpt lat="44.27856" lon="0.89546">
        <ele>163</ele>
        <time>2022-05-08T19:52:53Z</time>
      </trkpt>
      <trkpt lat="44.27902" lon="0.89494">
        <ele>161</ele>
        <time>2022-05-08T19:54:12Z</time>
      </trkpt>
      <trkpt lat="44.27923" lon="0.89508">
        <ele>153</ele>
        <time>2022-05-08T19:54:43Z</time>
      </trkpt>
      <trkpt lat="44.27949" lon="0.89563">
        <ele>141</ele>
        <time>2022-05-08T19:55:46Z</time>
      </trkpt>
      <trkpt lat="44.27968" lon="0.89608">
        <ele>135</ele>
        <time>2022-05-08T19:56:36Z</time>
      </trkpt>
      <trkpt lat="44.28022" lon="0.89639">
        <ele>131</ele>
        <time>2022-05-08T19:57:54Z</time>
      </trkpt>
      <trkpt lat="44.2807" lon="0.89666">
        <ele>129</ele>
        <time>2022-05-08T19:59:03Z</time>
      </trkpt>
      <trkpt lat="44.28115" lon="0.89684">
        <ele>124</ele>
        <time>2022-05-08T20:00:06Z</time>
      </trkpt>
      <trkpt lat="44.28176" lon="0.89701">
        <ele>117</ele>
        <time>2022-05-08T20:01:29Z</time>
      </trkpt>
      <trkpt lat="44.2823" lon="0.89725">
        <ele>110</ele>
        <time>2022-05-08T20:02:44Z</time>
      </trkpt>
      <trkpt lat="44.2824" lon="0.89778">
        <ele>108</ele>
        <time>2022-05-08T20:03:37Z</time>
      </trkpt>
      <trkpt lat="44.28256" lon="0.89856">
        <ele>104</ele>
        <time>2022-05-08T20:04:54Z</time>
      </trkpt>
      <trkpt lat="44.28335" lon="0.89851">
        <ele>100</ele>
        <time>2022-05-08T20:06:40Z</time>
      </trkpt>
      <trkpt lat="44.28407" lon="0.89827">
        <ele>97</ele>
        <time>2022-05-08T20:08:18Z</time>
      </trkpt>
      <trkpt lat="44.28463" lon="0.89825">
        <ele>97</ele>
        <time>2022-05-08T20:09:33Z</time>
      </trkpt>
      <trkpt lat="44.28535" lon="0.89817">
        <ele>98</ele>
        <time>2022-05-08T20:11:10Z</time>
      </trkpt>
      <trkpt lat="44.28539" lon="0.89814">
        <ele>98</ele>
        <time>2022-05-08T20:11:16Z</time>
      </trkpt>
      <trkpt lat="44.28658" lon="0.89799">
        <ele>108</ele>
        <time>2022-05-08T20:13:55Z</time>
      </trkpt>
      <trkpt lat="44.28742" lon="0.89818">
        <ele>123</ele>
        <time>2022-05-08T20:15:49Z</time>
      </trkpt>
      <trkpt lat="44.28816" lon="0.89832">
        <ele>136</ele>
        <time>2022-05-08T20:17:28Z</time>
      </trkpt>
      <trkpt lat="44.28877" lon="0.8983">
        <ele>152</ele>
        <time>2022-05-08T20:18:50Z</time>
      </trkpt>
      <trkpt lat="44.28903" lon="0.89748">
        <ele>161</ele>
        <time>2022-05-08T20:20:15Z</time>
      </trkpt>
      <trkpt lat="44.28964" lon="0.89625">
        <ele>168</ele>
        <time>2022-05-08T20:22:38Z</time>
      </trkpt>
      <trkpt lat="44.28982" lon="0.89588">
        <ele>166</ele>
        <time>2022-05-08T20:23:21Z</time>
      </trkpt>
      <trkpt lat="44.29031" lon="0.89602">
        <ele>175</ele>
        <time>2022-05-08T20:24:28Z</time>
      </trkpt>
      <trkpt lat="44.29076" lon="0.89637">
        <ele>186</ele>
        <time>2022-05-08T20:25:36Z</time>
      </trkpt>
      <trkpt lat="44.29092" lon="0.89735">
        <ele>201</ele>
        <time>2022-05-08T20:27:13Z</time>
      </trkpt>
      <trkpt lat="44.29104" lon="0.89826">
        <ele>198</ele>
        <time>2022-05-08T20:28:41Z</time>
      </trkpt>
      <trkpt lat="44.29134" lon="0.89883">
        <ele>189</ele>
        <time>2022-05-08T20:29:48Z</time>
      </trkpt>
      <trkpt lat="44.29161" lon="0.89933">
        <ele>184</ele>
        <time>2022-05-08T20:30:48Z</time>
      </trkpt>
      <trkpt lat="44.29198" lon="0.9001">
        <ele>177</ele>
        <time>2022-05-08T20:32:17Z</time>
      </trkpt>
      <trkpt lat="44.29242" lon="0.90075">
        <ele>179</ele>
        <time>2022-05-08T20:33:42Z</time>
      </trkpt>
      <trkpt lat="44.29289" lon="0.90108">
        <ele>185</ele>
        <time>2022-05-08T20:34:53Z</time>
      </trkpt>
      <trkpt lat="44.29305" lon="0.90123">
        <ele>187</ele>
        <time>2022-05-08T20:35:18Z</time>
      </trkpt>
      <trkpt lat="44.29309" lon="0.90092">
        <ele>189</ele>
        <time>2022-05-08T20:35:48Z</time>
      </trkpt>
      <trkpt lat="44.29381" lon="0.9009">
        <ele>194</ele>
        <time>2022-05-08T20:37:24Z</time>
      </trkpt>
      <trkpt lat="44.29427" lon="0.90106">
        <ele>194</ele>
        <time>2022-05-08T20:38:28Z</time>
      </trkpt>
      <trkpt lat="44.29465" lon="0.90186">
        <ele>192</ele>
        <time>2022-05-08T20:39:59Z</time>
      </trkpt>
      <trkpt lat="44.29483" lon="0.90322">
        <ele>189</ele>
        <time>2022-05-08T20:42:12Z</time>
      </trkpt>
      <trkpt lat="44.29491" lon="0.90375">
        <ele>187</ele>
        <time>2022-05-08T20:43:03Z</time>
      </trkpt>
      <trkpt lat="44.29519" lon="0.90459">
        <ele>181</ele>
        <time>2022-05-08T20:44:32Z</time>
      </trkpt>
      <trkpt lat="44.29524" lon="0.90478">
        <ele>180</ele>
        <time>2022-05-08T20:44:51Z</time>
      </trkpt>
      <trkpt lat="44.29544" lon="0.90524">
        <ele>175</ele>
        <time>2022-05-08T20:45:42Z</time>
      </trkpt>
      <trkpt lat="44.29575" lon="0.90586">
        <ele>166</ele>
        <time>2022-05-08T20:46:55Z</time>
      </trkpt>
      <trkpt lat="44.29629" lon="0.90606">
        <ele>151</ele>
        <time>2022-05-08T20:48:09Z</time>
      </trkpt>
      <trkpt lat="44.2975" lon="0.906">
        <ele>126</ele>
        <time>2022-05-08T20:50:51Z</time>
      </trkpt>
      <trkpt lat="44.29869" lon="0.906">
        <ele>109</ele>
        <time>2022-05-08T20:53:30Z</time>
      </trkpt>
      <trkpt lat="44.29882" lon="0.90516">
        <ele>108</ele>
        <time>2022-05-08T20:54:52Z</time>
      </trkpt>
      <trkpt lat="44.29884" lon="0.9035">
        <ele>110</ele>
        <time>2022-05-08T20:57:30Z</time>
      </trkpt>
      <trkpt lat="44.2988" lon="0.90209">
        <ele>108</ele>
        <time>2022-05-08T20:59:45Z</time>
      </trkpt>
      <trkpt lat="44.29938" lon="0.90157">
        <ele>104</ele>
        <time>2022-05-08T21:01:17Z</time>
      </trkpt>
      <trkpt lat="44.29986" lon="0.90068">
        <ele>101</ele>
        <time>2022-05-08T21:03:03Z</time>
      </trkpt>
      <trkpt lat="44.30026" lon="0.9003">
        <ele>101</ele>
        <time>2022-05-08T21:04:08Z</time>
      </trkpt>
      <trkpt lat="44.30106" lon="0.8999">
        <ele>102</ele>
        <time>2022-05-08T21:06:01Z</time>
      </trkpt>
      <trkpt lat="44.30178" lon="0.89982">
        <ele>105</ele>
        <time>2022-05-08T21:07:38Z</time>
      </trkpt>
      <trkpt lat="44.30218" lon="0.89962">
        <ele>110</ele>
        <time>2022-05-08T21:08:34Z</time>
      </trkpt>
      <trkpt lat="44.30188" lon="0.89857">
        <ele>110</ele>
        <time>2022-05-08T21:10:22Z</time>
      </trkpt>
      <trkpt lat="44.30143" lon="0.89739">
        <ele>110</ele>
        <time>2022-05-08T21:12:30Z</time>
      </trkpt>
      <trkpt lat="44.30086" lon="0.89653">
        <ele>108</ele>
        <time>2022-05-08T21:14:22Z</time>
      </trkpt>
      <trkpt lat="44.30029" lon="0.89554">
        <ele>109</ele>
        <time>2022-05-08T21:16:23Z</time>
      </trkpt>
      <trkpt lat="44.29994" lon="0.89483">
        <ele>108</ele>
        <time>2022-05-08T21:17:46Z</time>
      </trkpt>
      <trkpt lat="44.29954" lon="0.89377">
        <ele>107</ele>
        <time>2022-05-08T21:19:40Z</time>
      </trkpt>
      <trkpt lat="44.29917" lon="0.89287">
        <ele>108</ele>
        <time>2022-05-08T21:21:19Z</time>
      </trkpt>
      <trkpt lat="44.29901" lon="0.89228">
        <ele>108</ele>
        <time>2022-05-08T21:22:20Z</time>
      </trkpt>
      <trkpt lat="44.2986" lon="0.89207">
        <ele>108</ele>
        <time>2022-05-08T21:23:18Z</time>
      </trkpt>
      <trkpt lat="44.29842" lon="0.89189">
        <ele>109</ele>
        <time>2022-05-08T21:23:47Z</time>
      </trkpt>
      <trkpt lat="44.29824" lon="0.89212">
        <ele>108</ele>
        <time>2022-05-08T21:24:20Z</time>
      </trkpt>
      <trkpt lat="44.29742" lon="0.89164">
        <ele>114</ele>
        <time>2022-05-08T21:26:19Z</time>
      </trkpt>
      <trkpt lat="44.29663" lon="0.89112">
        <ele>110</ele>
        <time>2022-05-08T21:28:15Z</time>
      </trkpt>
      <trkpt lat="44.29579" lon="0.89055">
        <ele>105</ele>
        <time>2022-05-08T21:30:20Z</time>
      </trkpt>
      <trkpt lat="44.29493" lon="0.89001">
        <ele>104</ele>
        <time>2022-05-08T21:32:26Z</time>
      </trkpt>
      <trkpt lat="44.29379" lon="0.88913">
        <ele>104</ele>
        <time>2022-05-08T21:35:19Z</time>
      </trkpt>
      <trkpt lat="44.29264" lon="0.88828">
        <ele>102</ele>
        <time>2022-05-08T21:38:13Z</time>
      </trkpt>
      <trkpt lat="44.29214" lon="0.88801">
        <ele>100</ele>
        <time>2022-05-08T21:39:25Z</time>
      </trkpt>
      <trkpt lat="44.29163" lon="0.88737">
        <ele>100</ele>
        <time>2022-05-08T21:40:56Z</time>
      </trkpt>
      <trkpt lat="44.29124" lon="0.88678">
        <ele>101</ele>
        <time>2022-05-08T21:42:13Z</time>
      </trkpt>
      <trkpt lat="44.29064" lon="0.88558">
        <ele>103</ele>
        <time>2022-05-08T21:44:33Z</time>
      </trkpt>
      <trkpt lat="44.29012" lon="0.88525">
        <ele>101</ele>
        <time>2022-05-08T21:45:49Z</time>
      </trkpt>
      <trkpt lat="44.29028" lon="0.88521">
        <ele>102</ele>
        <time>2022-05-08T21:46:10Z</time>
      </trkpt>
      <trkpt lat="44.29056" lon="0.883">
        <ele>123</ele>
        <time>2022-05-08T21:49:45Z</time>
      </trkpt>
      <trkpt lat="44.29116" lon="0.88093">
        <ele>129</ele>
        <time>2022-05-08T21:53:18Z</time>
      </trkpt>
      <trkpt lat="44.29277" lon="0.87914">
        <ele>136</ele>
        <time>2022-05-08T21:57:53Z</time>
      </trkpt>
      <trkpt lat="44.29337" lon="0.87876">
        <ele>139</ele>
        <time>2022-05-08T21:59:21Z</time>
      </trkpt>
      <trkpt lat="44.2939" lon="0.87791">
        <ele>145</ele>
        <time>2022-05-08T22:01:08Z</time>
      </trkpt>
      <trkpt lat="44.29375" lon="0.87677">
        <ele>140</ele>
        <time>2022-05-08T22:02:59Z</time>
      </trkpt>
      <trkpt lat="44.29409" lon="0.87573">
        <ele>139</ele>
        <time>2022-05-08T22:04:48Z</time>
      </trkpt>
      <trkpt lat="44.29421" lon="0.87444">
        <ele>132</ele>
        <time>2022-05-08T22:06:53Z</time>
      </trkpt>
      <trkpt lat="44.29466" lon="0.87392">
        <ele>135</ele>
        <time>2022-05-08T22:08:10Z</time>
      </trkpt>
      <trkpt lat="44.29593" lon="0.87299">
        <ele>136</ele>
        <time>2022-05-08T22:11:22Z</time>
      </trkpt>
      <trkpt lat="44.29652" lon="0.8717">
        <ele>138</ele>
        <time>2022-05-08T22:13:48Z</time>
      </trkpt>
      <trkpt lat="44.2979" lon="0.86942">
        <ele>142</ele>
        <time>2022-05-08T22:18:33Z</time>
      </trkpt>
      <trkpt lat="44.29829" lon="0.86826">
        <ele>137</ele>
        <time>2022-05-08T22:20:36Z</time>
      </trkpt>
      <trkpt lat="44.29879" lon="0.86598">
        <ele>135</ele>
        <time>2022-05-08T22:24:23Z</time>
      </trkpt>
      <trkpt lat="44.30036" lon="0.86498">
        <ele>155</ele>
        <time>2022-05-08T22:28:14Z</time>
      </trkpt>
      <trkpt lat="44.3005" lon="0.86439">
        <ele>159</ele>
        <time>2022-05-08T22:29:13Z</time>
      </trkpt>
      <trkpt lat="44.30153" lon="0.86446">
        <ele>184</ele>
        <time>2022-05-08T22:31:31Z</time>
      </trkpt>
      <trkpt lat="44.30244" lon="0.86416">
        <ele>201</ele>
        <time>2022-05-08T22:33:35Z</time>
      </trkpt>
      <trkpt lat="44.30266" lon="0.86373">
        <ele>201</ele>
        <time>2022-05-08T22:34:26Z</time>
      </trkpt>
      <trkpt lat="44.30335" lon="0.86344">
        <ele>203</ele>
        <time>2022-05-08T22:36:02Z</time>
      </trkpt>
      <trkpt lat="44.30397" lon="0.86288">
        <ele>209</ele>
        <time>2022-05-08T22:37:41Z</time>
      </trkpt>
      <trkpt lat="44.30542" lon="0.85982">
        <ele>215</ele>
        <time>2022-05-08T22:43:31Z</time>
      </trkpt>
      <trkpt lat="44.30687" lon="0.85921">
        <ele>214</ele>
        <time>2022-05-08T22:46:53Z</time>
      </trkpt>
      <trkpt lat="44.3068" lon="0.85898">
        <ele>214</ele>
        <time>2022-05-08T22:47:17Z</time>
      </trkpt>
      <trkpt lat="44.30732" lon="0.85841">
        <ele>210</ele>
        <time>2022-05-08T22:48:45Z</time>
      </trkpt>
      <trkpt lat="44.30823" lon="0.85898">
        <ele>207</ele>
        <time>2022-05-08T22:50:58Z</time>
      </trkpt>
      <trkpt lat="44.30869" lon="0.85938">
        <ele>203</ele>
        <time>2022-05-08T22:52:11Z</time>
      </trkpt>
      <trkpt lat="44.30889" lon="0.85987">
        <ele>205</ele>
        <time>2022-05-08T22:53:04Z</time>
      </trkpt>
      <trkpt lat="44.30923" lon="0.85986">
        <ele>205</ele>
        <time>2022-05-08T22:53:50Z</time>
      </trkpt>
      <trkpt lat="44.30948" lon="0.85971">
        <ele>204</ele>
        <time>2022-05-08T22:54:26Z</time>
      </trkpt>
      <trkpt lat="44.31018" lon="0.85895">
        <ele>203</ele>
        <time>2022-05-08T22:56:24Z</time>
      </trkpt>
      <trkpt lat="44.31083" lon="0.85829">
        <ele>205</ele>
        <time>2022-05-08T22:58:12Z</time>
      </trkpt>
      <trkpt lat="44.31127" lon="0.85737">
        <ele>197</ele>
        <time>2022-05-08T22:59:57Z</time>
      </trkpt>
      <trkpt lat="44.31153" lon="0.85645">
        <ele>187</ele>
        <time>2022-05-08T23:01:32Z</time>
      </trkpt>
      <trkpt lat="44.31171" lon="0.85561">
        <ele>175</ele>
        <time>2022-05-08T23:02:55Z</time>
      </trkpt>
      <trkpt lat="44.312" lon="0.85497">
        <ele>168</ele>
        <time>2022-05-08T23:04:08Z</time>
      </trkpt>
      <trkpt lat="44.31204" lon="0.85447">
        <ele>158</ele>
        <time>2022-05-08T23:04:56Z</time>
      </trkpt>
      <trkpt lat="44.31283" lon="0.85344">
        <ele>149</ele>
        <time>2022-05-08T23:07:20Z</time>
      </trkpt>
      <trkpt lat="44.314" lon="0.85163">
        <ele>144</ele>
        <time>2022-05-08T23:11:13Z</time>
      </trkpt>
      <trkpt lat="44.31457" lon="0.85092">
        <ele>142</ele>
        <time>2022-05-08T23:12:55Z</time>
      </trkpt>
      <trkpt lat="44.31529" lon="0.85078">
        <ele>144</ele>
        <time>2022-05-08T23:14:32Z</time>
      </trkpt>
      <trkpt lat="44.31623" lon="0.85038">
        <ele>138</ele>
        <time>2022-05-08T23:16:43Z</time>
      </trkpt>
      <trkpt lat="44.31702" lon="0.85036">
        <ele>131</ele>
        <time>2022-05-08T23:18:28Z</time>
      </trkpt>
      <trkpt lat="44.31768" lon="0.84984">
        <ele>119</ele>
        <time>2022-05-08T23:20:09Z</time>
      </trkpt>
      <trkpt lat="44.31798" lon="0.84769">
        <ele>110</ele>
        <time>2022-05-08T23:23:39Z</time>
      </trkpt>
      <trkpt lat="44.31682" lon="0.84678">
        <ele>118</ele>
        <time>2022-05-08T23:26:36Z</time>
      </trkpt>
      <trkpt lat="44.31601" lon="0.8473">
        <ele>119</ele>
        <time>2022-05-08T23:28:35Z</time>
      </trkpt>
      <trkpt lat="44.31548" lon="0.84756">
        <ele>119</ele>
        <time>2022-05-08T23:29:50Z</time>
      </trkpt>
      <trkpt lat="44.31532" lon="0.84802">
        <ele>118</ele>
        <time>2022-05-08T23:30:39Z</time>
      </trkpt>
      <trkpt lat="44.31459" lon="0.84876">
        <ele>121</ele>
        <time>2022-05-08T23:32:39Z</time>
      </trkpt>
      <trkpt lat="44.31387" lon="0.84862">
        <ele>123</ele>
        <time>2022-05-08T23:34:16Z</time>
      </trkpt>
      <trkpt lat="44.31318" lon="0.84955">
        <ele>130</ele>
        <time>2022-05-08T23:36:24Z</time>
      </trkpt>
      <trkpt lat="44.3114" lon="0.85069">
        <ele>151</ele>
        <time>2022-05-08T23:40:45Z</time>
      </trkpt>
      <trkpt lat="44.31084" lon="0.85052">
        <ele>160</ele>
        <time>2022-05-08T23:42:02Z</time>
      </trkpt>
      <trkpt lat="44.3103" lon="0.8495">
        <ele>172</ele>
        <time>2022-05-08T23:44:03Z</time>
      </trkpt>
      <trkpt lat="44.30937" lon="0.84911">
        <ele>189</ele>
        <time>2022-05-08T23:46:13Z</time>
      </trkpt>
      <trkpt lat="44.30898" lon="0.84947">
        <ele>188</ele>
        <time>2022-05-08T23:47:15Z</time>
      </trkpt>
      <trkpt lat="44.30803" lon="0.84934">
        <ele>197</ele>
        <time>2022-05-08T23:49:22Z</time>
      </trkpt>
      <trkpt lat="44.30709" lon="0.84952">
        <ele>199</ele>
        <time>2022-05-08T23:51:29Z</time>
      </trkpt>
      <trkpt lat="44.30621" lon="0.85004">
        <ele>201</ele>
        <time>2022-05-08T23:53:36Z</time>
      </trkpt>
      <trkpt lat="44.3042" lon="0.85026">
        <ele>214</ele>
        <time>2022-05-08T23:58:06Z</time>
      </trkpt>
      <trkpt lat="44.30266" lon="0.84654">
        <ele>218</ele>
        <time>2022-05-09T00:04:56Z</time>
      </trkpt>
      <trkpt lat="44.30101" lon="0.8433">
        <ele>212</ele>
        <time>2022-05-09T00:11:16Z</time>
      </trkpt>
      <trkpt lat="44.30078" lon="0.84291">
        <ele>212</ele>
        <time>2022-05-09T00:12:04Z</time>
      </trkpt>
      <trkpt lat="44.30025" lon="0.84342">
        <ele>209</ele>
        <time>2022-05-09T00:13:30Z</time>
      </trkpt>
      <trkpt lat="44.30046" lon="0.84462">
        <ele>197</ele>
        <time>2022-05-09T00:15:28Z</time>
      </trkpt>
      <trkpt lat="44.30027" lon="0.84469">
        <ele>194</ele>
        <time>2022-05-09T00:15:54Z</time>
      </trkpt>
      <trkpt lat="44.29963" lon="0.84681">
        <ele>171</ele>
        <time>2022-05-09T00:19:34Z</time>
      </trkpt>
      <trkpt lat="44.2992" lon="0.84725">
        <ele>161</ele>
        <time>2022-05-09T00:20:45Z</time>
      </trkpt>
      <trkpt lat="44.29884" lon="0.84793">
        <ele>158</ele>
        <time>2022-05-09T00:22:06Z</time>
      </trkpt>
      <trkpt lat="44.29857" lon="0.84923">
        <ele>153</ele>
        <time>2022-05-09T00:24:15Z</time>
      </trkpt>
      <trkpt lat="44.29817" lon="0.84948">
        <ele>151</ele>
        <time>2022-05-09T00:25:14Z</time>
      </trkpt>
      <trkpt lat="44.29737" lon="0.8495">
        <ele>145</ele>
        <time>2022-05-09T00:27:00Z</time>
      </trkpt>
      <trkpt lat="44.2963" lon="0.85003">
        <ele>136</ele>
        <time>2022-05-09T00:29:32Z</time>
      </trkpt>
      <trkpt lat="44.2951" lon="0.85109">
        <ele>132</ele>
        <time>2022-05-09T00:32:41Z</time>
      </trkpt>
      <trkpt lat="44.29461" lon="0.8529">
        <ele>132</ele>
        <time>2022-05-09T00:35:46Z</time>
      </trkpt>
      <trkpt lat="44.29411" lon="0.85337">
        <ele>130</ele>
        <time>2022-05-09T00:37:06Z</time>
      </trkpt>
      <trkpt lat="44.2934" lon="0.85508">
        <ele>130</ele>
        <time>2022-05-09T00:40:15Z</time>
      </trkpt>
      <trkpt lat="44.29121" lon="0.85755">
        <ele>122</ele>
        <time>2022-05-09T00:46:31Z</time>
      </trkpt>
      <trkpt lat="44.29064" lon="0.85892">
        <ele>120</ele>
        <time>2022-05-09T00:49:02Z</time>
      </trkpt>
      <trkpt lat="44.2896" lon="0.86057">
        <ele>112</ele>
        <time>2022-05-09T00:52:32Z</time>
      </trkpt>
      <trkpt lat="44.28839" lon="0.86202">
        <ele>112</ele>
        <time>2022-05-09T00:56:05Z</time>
      </trkpt>
      <trkpt lat="44.28726" lon="0.86484">
        <ele>117</ele>
        <time>2022-05-09T01:01:14Z</time>
      </trkpt>
      <trkpt lat="44.28561" lon="0.86679">
        <ele>108</ele>
        <time>2022-05-09T01:06:02Z</time>
      </trkpt>
      <trkpt lat="44.28544" lon="0.86729">
        <ele>106</ele>
        <time>2022-05-09T01:06:55Z</time>
      </trkpt>
      <trkpt lat="44.28404" lon="0.8672">
        <ele>94</ele>
        <time>2022-05-09T01:10:02Z</time>
      </trkpt>
      <trkpt lat="44.28429" lon="0.86978">
        <ele>94</ele>
        <time>2022-05-09T01:14:11Z</time>
      </trkpt>
      <trkpt lat="44.28284" lon="0.87038">
        <ele>89</ele>
        <time>2022-05-09T01:17:33Z</time>
      </trkpt>
      <trkpt lat="44.28087" lon="0.87035">
        <ele>92</ele>
        <time>2022-05-09T01:21:55Z</time>
      </trkpt>
      <trkpt lat="44.27988" lon="0.87086">
        <ele>96</ele>
        <time>2022-05-09T01:24:16Z</time>
      </trkpt>
      <trkpt lat="44.27943" lon="0.87344">
        <ele>110</ele>
        <time>2022-05-09T01:28:30Z</time>
      </trkpt>
      <trkpt lat="44.27982" lon="0.87523">
        <ele>129</ele>
        <time>2022-05-09T01:31:29Z</time>
      </trkpt>
      <trkpt lat="44.27956" lon="0.87716">
        <ele>160</ele>
        <time>2022-05-09T01:34:36Z</time>
      </trkpt>
      <trkpt lat="44.27891" lon="0.8777">
        <ele>172</ele>
        <time>2022-05-09T01:36:17Z</time>
      </trkpt>
      <trkpt lat="44.27812" lon="0.87985">
        <ele>197</ele>
        <time>2022-05-09T01:40:08Z</time>
      </trkpt>
      <trkpt lat="44.27658" lon="0.88087">
        <ele>201</ele>
        <time>2022-05-09T01:43:56Z</time>
      </trkpt>
      <trkpt lat="44.27651" lon="0.88118">
        <ele>204</ele>
        <time>2022-05-09T01:44:27Z</time>
      </trkpt>
      <trkpt lat="44.27679" lon="0.88131">
        <ele>209</ele>
        <time>2022-05-09T01:45:06Z</time>
      </trkpt>
      <trkpt lat="44.27633" lon="0.88176">
        <ele>211</ele>
        <time>2022-05-09T01:46:21Z</time>
      </trkpt>
      <trkpt lat="44.2758" lon="0.88234">
        <ele>212</ele>
        <time>2022-05-09T01:47:51Z</time>
      </trkpt>
      <trkpt lat="44.27514" lon="0.88306">
        <ele>214</ele>
        <time>2022-05-09T01:49:43Z</time>
      </trkpt>
      <trkpt lat="44.27476" lon="0.88363">
        <ele>215</ele>
        <time>2022-05-09T01:50:57Z</time>
      </trkpt>
      <trkpt lat="44.27514" lon="0.88444">
        <ele>213</ele>
        <time>2022-05-09T01:52:30Z</time>
      </trkpt>
    </trkseg>
  </trk>
</gpx>